sensor_id;sensor_type;location;lat;lon;timestamp;P1;durP1;ratioP1;P2;durP2;ratioP2
4895;SDS011;2463;49.948;8.472;2023-03-21T00:00:38;98.68;;;8.00;;
4895;SDS011;2463;49.948;8.472;2023-03-21T00:03:05;94.53;;;7.53;;
4895;SDS011;2463;49.948;8.472;2023-03-21T00:05:32;94.32;;;7.70;;
4895;SDS011;2463;49.948;8.472;2023-03-21T00:07:59;98.32;;;8.57;;
4895;SDS011;2463;49.948;8.472;2023-03-21T00:10:27;95.15;;;8.00;;
4895;SDS011;2463;49.948;8.472;2023-03-21T00:13:05;95.63;;;7.55;;
4895;SDS011;2463;49.948;8.472;2023-03-21T00:15:32;94.22;;;7.65;;
4895;SDS011;2463;49.948;8.472;2023-03-21T00:18:20;96.10;;;7.25;;
4895;SDS011;2463;49.948;8.472;2023-03-21T00:23:44;95.55;;;7.47;;
4895;SDS011;2463;49.948;8.472;2023-03-21T00:26:12;95.78;;;7.80;;
4895;SDS011;2463;49.948;8.472;2023-03-21T00:28:40;94.28;;;7.70;;
4895;SDS011;2463;49.948;8.472;2023-03-21T00:31:08;100.63;;;8.05;;
4895;SDS011;2463;49.948;8.472;2023-03-21T00:33:35;94.43;;;7.55;;
4895;SDS011;2463;49.948;8.472;2023-03-21T00:36:04;97.82;;;8.38;;
4895;SDS011;2463;49.948;8.472;2023-03-21T00:38:34;93.70;;;7.55;;
4895;SDS011;2463;49.948;8.472;2023-03-21T00:41:03;96.93;;;8.05;;
4895;SDS011;2463;49.948;8.472;2023-03-21T00:43:48;97.43;;;8.70;;
4895;SDS011;2463;49.948;8.472;2023-03-21T00:46:17;97.20;;;8.10;;
4895;SDS011;2463;49.948;8.472;2023-03-21T00:48:44;97.05;;;8.52;;
4895;SDS011;2463;49.948;8.472;2023-03-21T00:51:13;97.95;;;8.38;;
4895;SDS011;2463;49.948;8.472;2023-03-21T00:53:43;98.10;;;7.93;;
4895;SDS011;2463;49.948;8.472;2023-03-21T00:56:10;94.40;;;8.35;;
4895;SDS011;2463;49.948;8.472;2023-03-21T00:58:37;95.97;;;7.68;;
4895;SDS011;2463;49.948;8.472;2023-03-21T01:01:03;95.38;;;8.48;;
4895;SDS011;2463;49.948;8.472;2023-03-21T01:03:32;105.45;;;8.05;;
4895;SDS011;2463;49.948;8.472;2023-03-21T01:06:08;99.35;;;7.53;;
4895;SDS011;2463;49.948;8.472;2023-03-21T01:08:39;95.80;;;7.63;;
4895;SDS011;2463;49.948;8.472;2023-03-21T01:11:18;101.30;;;7.93;;
4895;SDS011;2463;49.948;8.472;2023-03-21T01:13:47;96.15;;;7.93;;
4895;SDS011;2463;49.948;8.472;2023-03-21T01:16:34;95.63;;;7.32;;
4895;SDS011;2463;49.948;8.472;2023-03-21T01:19:03;94.50;;;7.88;;
4895;SDS011;2463;49.948;8.472;2023-03-21T01:21:37;93.88;;;7.03;;
4895;SDS011;2463;49.948;8.472;2023-03-21T01:24:04;95.97;;;8.25;;
4895;SDS011;2463;49.948;8.472;2023-03-21T01:26:32;96.00;;;7.72;;
4895;SDS011;2463;49.948;8.472;2023-03-21T01:28:58;93.93;;;7.63;;
4895;SDS011;2463;49.948;8.472;2023-03-21T01:31:25;98.88;;;7.32;;
4895;SDS011;2463;49.948;8.472;2023-03-21T01:33:52;94.95;;;8.10;;
4895;SDS011;2463;49.948;8.472;2023-03-21T01:36:19;96.05;;;7.03;;
4895;SDS011;2463;49.948;8.472;2023-03-21T01:38:49;93.57;;;7.50;;
4895;SDS011;2463;49.948;8.472;2023-03-21T01:44:05;97.03;;;7.32;;
4895;SDS011;2463;49.948;8.472;2023-03-21T01:46:39;93.90;;;7.70;;
4895;SDS011;2463;49.948;8.472;2023-03-21T01:49:28;97.03;;;9.38;;
4895;SDS011;2463;49.948;8.472;2023-03-21T01:52:00;95.32;;;8.23;;
4895;SDS011;2463;49.948;8.472;2023-03-21T01:54:39;97.22;;;8.50;;
4895;SDS011;2463;49.948;8.472;2023-03-21T01:57:08;96.35;;;7.53;;
4895;SDS011;2463;49.948;8.472;2023-03-21T01:59:44;94.03;;;7.90;;
4895;SDS011;2463;49.948;8.472;2023-03-21T02:02:16;99.35;;;7.95;;
4895;SDS011;2463;49.948;8.472;2023-03-21T02:04:48;98.35;;;8.20;;
4895;SDS011;2463;49.948;8.472;2023-03-21T02:07:26;101.70;;;8.25;;
4895;SDS011;2463;49.948;8.472;2023-03-21T02:09:54;95.88;;;8.70;;
4895;SDS011;2463;49.948;8.472;2023-03-21T02:12:23;96.75;;;8.82;;
4895;SDS011;2463;49.948;8.472;2023-03-21T02:14:51;97.03;;;9.20;;
4895;SDS011;2463;49.948;8.472;2023-03-21T02:17:32;99.57;;;9.02;;
4895;SDS011;2463;49.948;8.472;2023-03-21T02:20:27;98.35;;;8.10;;
4895;SDS011;2463;49.948;8.472;2023-03-21T02:23:22;95.30;;;7.93;;
4895;SDS011;2463;49.948;8.472;2023-03-21T02:35:08;95.28;;;7.35;;
4895;SDS011;2463;49.948;8.472;2023-03-21T02:38:24;100.47;;;8.00;;
4895;SDS011;2463;49.948;8.472;2023-03-21T02:41:04;96.82;;;7.85;;
4895;SDS011;2463;49.948;8.472;2023-03-21T02:47:00;98.78;;;8.25;;
4895;SDS011;2463;49.948;8.472;2023-03-21T02:49:55;96.55;;;7.75;;
4895;SDS011;2463;49.948;8.472;2023-03-21T02:52:28;94.78;;;7.72;;
4895;SDS011;2463;49.948;8.472;2023-03-21T02:55:05;94.15;;;7.22;;
4895;SDS011;2463;49.948;8.472;2023-03-21T02:57:39;97.63;;;7.68;;
4895;SDS011;2463;49.948;8.472;2023-03-21T03:00:10;103.75;;;8.20;;
4895;SDS011;2463;49.948;8.472;2023-03-21T03:02:43;96.25;;;8.30;;
4895;SDS011;2463;49.948;8.472;2023-03-21T03:05:14;95.65;;;7.35;;
4895;SDS011;2463;49.948;8.472;2023-03-21T03:07:51;95.53;;;7.60;;
4895;SDS011;2463;49.948;8.472;2023-03-21T03:10:46;98.63;;;7.32;;
4895;SDS011;2463;49.948;8.472;2023-03-21T03:18:54;97.20;;;7.55;;
4895;SDS011;2463;49.948;8.472;2023-03-21T03:21:30;96.50;;;7.60;;
4895;SDS011;2463;49.948;8.472;2023-03-21T03:24:06;94.93;;;7.32;;
4895;SDS011;2463;49.948;8.472;2023-03-21T03:29:07;93.72;;;7.13;;
4895;SDS011;2463;49.948;8.472;2023-03-21T03:31:39;97.63;;;6.90;;
4895;SDS011;2463;49.948;8.472;2023-03-21T03:34:13;94.60;;;7.60;;
4895;SDS011;2463;49.948;8.472;2023-03-21T03:36:46;94.22;;;7.38;;
4895;SDS011;2463;49.948;8.472;2023-03-21T03:39:21;96.97;;;7.57;;
4895;SDS011;2463;49.948;8.472;2023-03-21T03:42:00;97.07;;;7.70;;
4895;SDS011;2463;49.948;8.472;2023-03-21T03:44:50;95.90;;;7.30;;
4895;SDS011;2463;49.948;8.472;2023-03-21T03:53:16;98.20;;;7.95;;
4895;SDS011;2463;49.948;8.472;2023-03-21T03:55:47;95.53;;;8.88;;
4895;SDS011;2463;49.948;8.472;2023-03-21T03:58:17;94.97;;;7.70;;
4895;SDS011;2463;49.948;8.472;2023-03-21T04:00:50;107.32;;;8.48;;
4895;SDS011;2463;49.948;8.472;2023-03-21T04:03:18;96.88;;;7.82;;
4895;SDS011;2463;49.948;8.472;2023-03-21T04:05:45;98.93;;;8.00;;
4895;SDS011;2463;49.948;8.472;2023-03-21T04:08:13;97.57;;;8.32;;
4895;SDS011;2463;49.948;8.472;2023-03-21T04:10:41;95.75;;;8.23;;
4895;SDS011;2463;49.948;8.472;2023-03-21T04:13:08;96.10;;;7.75;;
4895;SDS011;2463;49.948;8.472;2023-03-21T04:15:35;101.10;;;8.40;;
4895;SDS011;2463;49.948;8.472;2023-03-21T04:18:02;97.57;;;8.10;;
4895;SDS011;2463;49.948;8.472;2023-03-21T04:20:29;98.63;;;8.50;;
4895;SDS011;2463;49.948;8.472;2023-03-21T04:23:02;96.60;;;8.32;;
4895;SDS011;2463;49.948;8.472;2023-03-21T04:25:34;98.72;;;8.55;;
4895;SDS011;2463;49.948;8.472;2023-03-21T04:28:05;98.38;;;8.57;;
4895;SDS011;2463;49.948;8.472;2023-03-21T04:30:32;96.65;;;8.02;;
4895;SDS011;2463;49.948;8.472;2023-03-21T04:32:59;102.35;;;8.23;;
4895;SDS011;2463;49.948;8.472;2023-03-21T04:35:26;100.18;;;7.88;;
4895;SDS011;2463;49.948;8.472;2023-03-21T04:37:53;104.53;;;8.70;;
4895;SDS011;2463;49.948;8.472;2023-03-21T04:40:21;95.68;;;7.88;;
4895;SDS011;2463;49.948;8.472;2023-03-21T04:42:49;101.78;;;7.95;;
4895;SDS011;2463;49.948;8.472;2023-03-21T04:45:17;94.53;;;8.13;;
4895;SDS011;2463;49.948;8.472;2023-03-21T04:47:44;96.45;;;7.45;;
4895;SDS011;2463;49.948;8.472;2023-03-21T04:50:11;93.68;;;6.85;;
4895;SDS011;2463;49.948;8.472;2023-03-21T04:52:38;98.00;;;7.88;;
4895;SDS011;2463;49.948;8.472;2023-03-21T04:55:05;94.55;;;7.72;;
4895;SDS011;2463;49.948;8.472;2023-03-21T04:57:35;97.55;;;8.00;;
4895;SDS011;2463;49.948;8.472;2023-03-21T05:00:04;97.90;;;8.38;;
4895;SDS011;2463;49.948;8.472;2023-03-21T05:02:50;97.10;;;8.77;;
4895;SDS011;2463;49.948;8.472;2023-03-21T05:05:17;101.50;;;9.02;;
4895;SDS011;2463;49.948;8.472;2023-03-21T05:07:44;98.07;;;8.88;;
4895;SDS011;2463;49.948;8.472;2023-03-21T05:10:10;94.72;;;8.05;;
4895;SDS011;2463;49.948;8.472;2023-03-21T05:12:37;97.28;;;8.57;;
4895;SDS011;2463;49.948;8.472;2023-03-21T05:15:05;101.07;;;8.85;;
4895;SDS011;2463;49.948;8.472;2023-03-21T05:17:32;98.35;;;9.05;;
4895;SDS011;2463;49.948;8.472;2023-03-21T05:19:59;96.50;;;9.13;;
4895;SDS011;2463;49.948;8.472;2023-03-21T05:22:26;94.68;;;7.70;;
4895;SDS011;2463;49.948;8.472;2023-03-21T05:24:54;101.63;;;9.80;;
4895;SDS011;2463;49.948;8.472;2023-03-21T05:27:21;101.60;;;9.68;;
4895;SDS011;2463;49.948;8.472;2023-03-21T05:32:45;102.97;;;9.23;;
4895;SDS011;2463;49.948;8.472;2023-03-21T05:35:12;101.68;;;8.70;;
4895;SDS011;2463;49.948;8.472;2023-03-21T05:37:39;97.28;;;8.52;;
4895;SDS011;2463;49.948;8.472;2023-03-21T05:40:06;99.47;;;9.00;;
4895;SDS011;2463;49.948;8.472;2023-03-21T05:42:33;96.57;;;8.48;;
4895;SDS011;2463;49.948;8.472;2023-03-21T05:45:00;96.35;;;9.88;;
4895;SDS011;2463;49.948;8.472;2023-03-21T05:47:27;97.78;;;9.07;;
4895;SDS011;2463;49.948;8.472;2023-03-21T05:49:53;95.93;;;8.18;;
4895;SDS011;2463;49.948;8.472;2023-03-21T05:52:20;96.70;;;8.68;;
4895;SDS011;2463;49.948;8.472;2023-03-21T05:54:47;106.95;;;9.50;;
4895;SDS011;2463;49.948;8.472;2023-03-21T05:57:14;96.15;;;8.27;;
4895;SDS011;2463;49.948;8.472;2023-03-21T05:59:41;97.85;;;8.95;;
4895;SDS011;2463;49.948;8.472;2023-03-21T06:02:08;99.40;;;9.48;;
4895;SDS011;2463;49.948;8.472;2023-03-21T06:04:34;96.68;;;8.57;;
4895;SDS011;2463;49.948;8.472;2023-03-21T06:07:01;98.28;;;8.38;;
4895;SDS011;2463;49.948;8.472;2023-03-21T06:09:28;99.93;;;8.32;;
4895;SDS011;2463;49.948;8.472;2023-03-21T06:11:55;99.53;;;8.55;;
4895;SDS011;2463;49.948;8.472;2023-03-21T06:14:22;94.82;;;8.05;;
4895;SDS011;2463;49.948;8.472;2023-03-21T06:16:50;97.13;;;8.95;;
4895;SDS011;2463;49.948;8.472;2023-03-21T06:19:19;97.40;;;8.30;;
4895;SDS011;2463;49.948;8.472;2023-03-21T06:21:47;94.72;;;8.88;;
4895;SDS011;2463;49.948;8.472;2023-03-21T06:24:14;98.75;;;8.40;;
4895;SDS011;2463;49.948;8.472;2023-03-21T06:26:43;96.82;;;8.02;;
4895;SDS011;2463;49.948;8.472;2023-03-21T06:29:10;95.20;;;8.55;;
4895;SDS011;2463;49.948;8.472;2023-03-21T06:31:37;101.00;;;9.10;;
4895;SDS011;2463;49.948;8.472;2023-03-21T06:34:04;99.03;;;8.15;;
4895;SDS011;2463;49.948;8.472;2023-03-21T06:36:31;98.78;;;8.75;;
4895;SDS011;2463;49.948;8.472;2023-03-21T06:38:58;96.50;;;8.20;;
4895;SDS011;2463;49.948;8.472;2023-03-21T06:41:25;100.45;;;8.23;;
4895;SDS011;2463;49.948;8.472;2023-03-21T06:43:51;94.47;;;8.13;;
4895;SDS011;2463;49.948;8.472;2023-03-21T06:46:18;96.13;;;8.25;;
4895;SDS011;2463;49.948;8.472;2023-03-21T06:48:45;94.32;;;8.35;;
4895;SDS011;2463;49.948;8.472;2023-03-21T06:51:12;97.95;;;9.57;;
4895;SDS011;2463;49.948;8.472;2023-03-21T06:53:39;99.43;;;8.65;;
4895;SDS011;2463;49.948;8.472;2023-03-21T06:56:10;100.55;;;8.32;;
4895;SDS011;2463;49.948;8.472;2023-03-21T06:58:38;98.93;;;8.50;;
4895;SDS011;2463;49.948;8.472;2023-03-21T07:01:06;98.68;;;9.18;;
4895;SDS011;2463;49.948;8.472;2023-03-21T07:03:33;108.88;;;8.18;;
4895;SDS011;2463;49.948;8.472;2023-03-21T07:06:07;93.53;;;8.10;;
4895;SDS011;2463;49.948;8.472;2023-03-21T07:08:37;94.05;;;8.00;;
4895;SDS011;2463;49.948;8.472;2023-03-21T07:11:05;101.95;;;9.75;;
4895;SDS011;2463;49.948;8.472;2023-03-21T07:13:32;94.82;;;8.90;;
4895;SDS011;2463;49.948;8.472;2023-03-21T07:15:59;99.75;;;8.82;;
4895;SDS011;2463;49.948;8.472;2023-03-21T07:18:26;96.82;;;8.65;;
4895;SDS011;2463;49.948;8.472;2023-03-21T07:20:52;97.15;;;8.27;;
4895;SDS011;2463;49.948;8.472;2023-03-21T07:23:20;100.30;;;8.93;;
4895;SDS011;2463;49.948;8.472;2023-03-21T07:25:48;95.65;;;7.78;;
4895;SDS011;2463;49.948;8.472;2023-03-21T07:28:16;104.88;;;8.63;;
4895;SDS011;2463;49.948;8.472;2023-03-21T07:30:44;101.55;;;9.00;;
4895;SDS011;2463;49.948;8.472;2023-03-21T07:33:16;97.82;;;7.90;;
4895;SDS011;2463;49.948;8.472;2023-03-21T07:35:43;97.88;;;8.95;;
4895;SDS011;2463;49.948;8.472;2023-03-21T07:38:09;100.95;;;8.80;;
4895;SDS011;2463;49.948;8.472;2023-03-21T07:40:36;96.60;;;8.35;;
4895;SDS011;2463;49.948;8.472;2023-03-21T07:43:03;94.68;;;8.55;;
4895;SDS011;2463;49.948;8.472;2023-03-21T07:45:30;101.63;;;8.80;;
4895;SDS011;2463;49.948;8.472;2023-03-21T07:47:56;96.97;;;9.50;;
4895;SDS011;2463;49.948;8.472;2023-03-21T07:50:23;96.07;;;8.40;;
4895;SDS011;2463;49.948;8.472;2023-03-21T07:52:50;102.05;;;8.30;;
4895;SDS011;2463;49.948;8.472;2023-03-21T07:55:17;96.45;;;8.23;;
4895;SDS011;2463;49.948;8.472;2023-03-21T07:57:43;99.97;;;9.20;;
4895;SDS011;2463;49.948;8.472;2023-03-21T08:00:10;98.03;;;8.63;;
4895;SDS011;2463;49.948;8.472;2023-03-21T08:02:38;107.72;;;9.50;;
4895;SDS011;2463;49.948;8.472;2023-03-21T08:05:06;95.38;;;8.32;;
4895;SDS011;2463;49.948;8.472;2023-03-21T08:07:33;100.00;;;8.25;;
4895;SDS011;2463;49.948;8.472;2023-03-21T08:10:00;96.93;;;8.80;;
4895;SDS011;2463;49.948;8.472;2023-03-21T08:12:26;97.15;;;8.32;;
4895;SDS011;2463;49.948;8.472;2023-03-21T08:14:53;95.97;;;8.20;;
4895;SDS011;2463;49.948;8.472;2023-03-21T08:17:20;102.35;;;7.90;;
4895;SDS011;2463;49.948;8.472;2023-03-21T08:19:46;94.45;;;8.43;;
4895;SDS011;2463;49.948;8.472;2023-03-21T08:22:14;98.22;;;8.25;;
4895;SDS011;2463;49.948;8.472;2023-03-21T08:24:41;95.50;;;8.52;;
4895;SDS011;2463;49.948;8.472;2023-03-21T08:27:07;95.45;;;7.63;;
4895;SDS011;2463;49.948;8.472;2023-03-21T08:29:34;94.93;;;7.82;;
4895;SDS011;2463;49.948;8.472;2023-03-21T08:32:05;99.90;;;8.68;;
4895;SDS011;2463;49.948;8.472;2023-03-21T08:34:32;93.45;;;7.38;;
4895;SDS011;2463;49.948;8.472;2023-03-21T08:36:59;93.50;;;7.80;;
4895;SDS011;2463;49.948;8.472;2023-03-21T08:39:26;92.40;;;7.90;;
4895;SDS011;2463;49.948;8.472;2023-03-21T08:41:53;92.03;;;7.43;;
4895;SDS011;2463;49.948;8.472;2023-03-21T08:44:20;98.43;;;8.30;;
4895;SDS011;2463;49.948;8.472;2023-03-21T08:46:47;93.30;;;7.38;;
4895;SDS011;2463;49.948;8.472;2023-03-21T08:49:13;95.30;;;7.97;;
4895;SDS011;2463;49.948;8.472;2023-03-21T08:51:40;93.68;;;8.13;;
4895;SDS011;2463;49.948;8.472;2023-03-21T08:54:20;98.93;;;8.20;;
4895;SDS011;2463;49.948;8.472;2023-03-21T08:56:47;102.32;;;8.70;;
4895;SDS011;2463;49.948;8.472;2023-03-21T08:59:14;97.70;;;8.20;;
4895;SDS011;2463;49.948;8.472;2023-03-21T09:01:41;94.50;;;7.35;;
4895;SDS011;2463;49.948;8.472;2023-03-21T09:04:07;96.15;;;7.65;;
4895;SDS011;2463;49.948;8.472;2023-03-21T09:06:36;97.20;;;8.23;;
4895;SDS011;2463;49.948;8.472;2023-03-21T09:09:03;98.20;;;8.32;;
4895;SDS011;2463;49.948;8.472;2023-03-21T09:11:33;96.13;;;7.38;;
4895;SDS011;2463;49.948;8.472;2023-03-21T09:14:00;98.60;;;8.45;;
4895;SDS011;2463;49.948;8.472;2023-03-21T09:16:27;97.03;;;7.72;;
4895;SDS011;2463;49.948;8.472;2023-03-21T09:18:53;97.50;;;9.50;;
4895;SDS011;2463;49.948;8.472;2023-03-21T09:21:22;95.07;;;7.60;;
4895;SDS011;2463;49.948;8.472;2023-03-21T09:23:49;94.18;;;8.43;;
4895;SDS011;2463;49.948;8.472;2023-03-21T09:26:18;96.65;;;9.18;;
4895;SDS011;2463;49.948;8.472;2023-03-21T09:28:45;94.60;;;8.10;;
4895;SDS011;2463;49.948;8.472;2023-03-21T09:31:13;97.65;;;8.75;;
4895;SDS011;2463;49.948;8.472;2023-03-21T09:33:41;98.10;;;8.32;;
4895;SDS011;2463;49.948;8.472;2023-03-21T09:36:09;92.25;;;7.35;;
4895;SDS011;2463;49.948;8.472;2023-03-21T09:38:40;95.10;;;7.80;;
4895;SDS011;2463;49.948;8.472;2023-03-21T09:47:09;95.45;;;8.15;;
4895;SDS011;2463;49.948;8.472;2023-03-21T09:49:39;97.10;;;7.70;;
4895;SDS011;2463;49.948;8.472;2023-03-21T09:55:08;93.38;;;7.30;;
4895;SDS011;2463;49.948;8.472;2023-03-21T09:57:46;93.88;;;7.82;;
4895;SDS011;2463;49.948;8.472;2023-03-21T10:00:20;98.07;;;8.00;;
4895;SDS011;2463;49.948;8.472;2023-03-21T10:02:55;94.80;;;8.13;;
4895;SDS011;2463;49.948;8.472;2023-03-21T10:05:27;93.00;;;6.90;;
4895;SDS011;2463;49.948;8.472;2023-03-21T10:07:58;95.97;;;7.43;;
4895;SDS011;2463;49.948;8.472;2023-03-21T10:10:39;95.95;;;7.10;;
4895;SDS011;2463;49.948;8.472;2023-03-21T10:13:28;97.60;;;7.20;;
4895;SDS011;2463;49.948;8.472;2023-03-21T10:15:59;92.47;;;6.72;;
4895;SDS011;2463;49.948;8.472;2023-03-21T10:18:29;95.65;;;6.50;;
4895;SDS011;2463;49.948;8.472;2023-03-21T10:20:56;94.47;;;6.25;;
4895;SDS011;2463;49.948;8.472;2023-03-21T10:23:27;95.43;;;7.20;;
4895;SDS011;2463;49.948;8.472;2023-03-21T10:25:55;90.88;;;6.15;;
4895;SDS011;2463;49.948;8.472;2023-03-21T10:28:26;93.85;;;6.95;;
4895;SDS011;2463;49.948;8.472;2023-03-21T10:31:17;91.18;;;6.20;;
4895;SDS011;2463;49.948;8.472;2023-03-21T10:33:50;93.10;;;6.30;;
4895;SDS011;2463;49.948;8.472;2023-03-21T10:36:19;97.30;;;7.55;;
4895;SDS011;2463;49.948;8.472;2023-03-21T10:38:55;97.65;;;6.88;;
4895;SDS011;2463;49.948;8.472;2023-03-21T10:41:28;96.63;;;7.00;;
4895;SDS011;2463;49.948;8.472;2023-03-21T10:44:30;92.85;;;6.78;;
4895;SDS011;2463;49.948;8.472;2023-03-21T10:46:55;96.75;;;7.18;;
4895;SDS011;2463;49.948;8.472;2023-03-21T10:49:35;94.45;;;6.60;;
4895;SDS011;2463;49.948;8.472;2023-03-21T10:52:23;92.82;;;6.78;;
4895;SDS011;2463;49.948;8.472;2023-03-21T10:58:07;93.03;;;6.57;;
4895;SDS011;2463;49.948;8.472;2023-03-21T11:00:44;92.13;;;6.75;;
4895;SDS011;2463;49.948;8.472;2023-03-21T11:03:20;92.00;;;6.53;;
4895;SDS011;2463;49.948;8.472;2023-03-21T11:06:01;91.82;;;6.90;;
4895;SDS011;2463;49.948;8.472;2023-03-21T11:08:40;93.65;;;6.35;;
4895;SDS011;2463;49.948;8.472;2023-03-21T11:11:11;95.22;;;7.55;;
4895;SDS011;2463;49.948;8.472;2023-03-21T11:13:55;92.57;;;6.78;;
4895;SDS011;2463;49.948;8.472;2023-03-21T11:16:30;93.93;;;6.43;;
4895;SDS011;2463;49.948;8.472;2023-03-21T11:19:12;94.38;;;7.28;;
4895;SDS011;2463;49.948;8.472;2023-03-21T11:21:41;93.45;;;6.35;;
4895;SDS011;2463;49.948;8.472;2023-03-21T11:24:15;96.45;;;7.20;;
4895;SDS011;2463;49.948;8.472;2023-03-21T11:26:44;95.55;;;6.90;;
4895;SDS011;2463;49.948;8.472;2023-03-21T11:31:51;94.20;;;8.00;;
4895;SDS011;2463;49.948;8.472;2023-03-21T11:34:30;95.68;;;7.20;;
4895;SDS011;2463;49.948;8.472;2023-03-21T11:37:04;94.07;;;7.20;;
4895;SDS011;2463;49.948;8.472;2023-03-21T11:39:33;94.25;;;7.20;;
4895;SDS011;2463;49.948;8.472;2023-03-21T11:42:05;94.05;;;7.32;;
4895;SDS011;2463;49.948;8.472;2023-03-21T11:44:56;94.15;;;6.93;;
4895;SDS011;2463;49.948;8.472;2023-03-21T11:47:27;101.88;;;8.18;;
4895;SDS011;2463;49.948;8.472;2023-03-21T11:49:54;93.13;;;7.63;;
4895;SDS011;2463;49.948;8.472;2023-03-21T11:52:32;100.30;;;7.70;;
4895;SDS011;2463;49.948;8.472;2023-03-21T11:58:39;96.05;;;6.22;;
4895;SDS011;2463;49.948;8.472;2023-03-21T12:06:52;96.35;;;7.18;;
4895;SDS011;2463;49.948;8.472;2023-03-21T12:09:28;95.20;;;7.05;;
4895;SDS011;2463;49.948;8.472;2023-03-21T12:12:28;95.60;;;7.60;;
4895;SDS011;2463;49.948;8.472;2023-03-21T12:18:07;92.20;;;5.95;;
4895;SDS011;2463;49.948;8.472;2023-03-21T12:28:27;91.30;;;5.57;;
4895;SDS011;2463;49.948;8.472;2023-03-21T12:34:08;93.20;;;6.15;;
4895;SDS011;2463;49.948;8.472;2023-03-21T12:37:11;90.50;;;6.07;;
4895;SDS011;2463;49.948;8.472;2023-03-21T12:39:46;95.97;;;6.55;;
4895;SDS011;2463;49.948;8.472;2023-03-21T12:45:10;90.40;;;5.50;;
4895;SDS011;2463;49.948;8.472;2023-03-21T12:47:42;94.10;;;6.90;;
4895;SDS011;2463;49.948;8.472;2023-03-21T12:50:14;93.35;;;6.65;;
4895;SDS011;2463;49.948;8.472;2023-03-21T12:52:49;90.90;;;6.22;;
4895;SDS011;2463;49.948;8.472;2023-03-21T12:55:21;92.28;;;7.00;;
4895;SDS011;2463;49.948;8.472;2023-03-21T12:57:54;96.43;;;7.15;;
4895;SDS011;2463;49.948;8.472;2023-03-21T13:00:37;95.00;;;7.22;;
4895;SDS011;2463;49.948;8.472;2023-03-21T13:03:18;91.53;;;6.80;;
4895;SDS011;2463;49.948;8.472;2023-03-21T13:06:04;92.40;;;6.80;;
4895;SDS011;2463;49.948;8.472;2023-03-21T13:08:33;94.05;;;7.90;;
4895;SDS011;2463;49.948;8.472;2023-03-21T13:11:10;94.20;;;7.18;;
4895;SDS011;2463;49.948;8.472;2023-03-21T13:18:51;92.65;;;6.82;;
4895;SDS011;2463;49.948;8.472;2023-03-21T13:27:00;94.80;;;6.90;;
4895;SDS011;2463;49.948;8.472;2023-03-21T13:29:46;96.65;;;7.40;;
4895;SDS011;2463;49.948;8.472;2023-03-21T13:32:20;98.50;;;7.50;;
4895;SDS011;2463;49.948;8.472;2023-03-21T13:35:18;104.85;;;7.05;;
4895;SDS011;2463;49.948;8.472;2023-03-21T13:37:55;97.28;;;7.20;;
4895;SDS011;2463;49.948;8.472;2023-03-21T13:42:59;95.80;;;7.28;;
4895;SDS011;2463;49.948;8.472;2023-03-21T13:48:03;94.63;;;7.00;;
4895;SDS011;2463;49.948;8.472;2023-03-21T13:50:33;93.20;;;7.65;;
4895;SDS011;2463;49.948;8.472;2023-03-21T13:55:42;102.28;;;7.70;;
4895;SDS011;2463;49.948;8.472;2023-03-21T13:58:29;94.65;;;7.43;;
4895;SDS011;2463;49.948;8.472;2023-03-21T14:01:12;96.00;;;7.65;;
4895;SDS011;2463;49.948;8.472;2023-03-21T14:04:03;92.10;;;6.65;;
4895;SDS011;2463;49.948;8.472;2023-03-21T14:09:08;94.20;;;7.70;;
4895;SDS011;2463;49.948;8.472;2023-03-21T14:11:41;93.50;;;8.50;;
4895;SDS011;2463;49.948;8.472;2023-03-21T14:14:12;95.55;;;8.13;;
4895;SDS011;2463;49.948;8.472;2023-03-21T14:16:39;93.32;;;7.30;;
4895;SDS011;2463;49.948;8.472;2023-03-21T14:19:09;97.55;;;8.07;;
4895;SDS011;2463;49.948;8.472;2023-03-21T14:21:37;94.28;;;8.45;;
4895;SDS011;2463;49.948;8.472;2023-03-21T14:24:12;98.35;;;8.07;;
4895;SDS011;2463;49.948;8.472;2023-03-21T14:26:40;95.85;;;8.07;;
4895;SDS011;2463;49.948;8.472;2023-03-21T14:29:10;97.75;;;8.15;;
4895;SDS011;2463;49.948;8.472;2023-03-21T14:31:52;100.32;;;8.30;;
4895;SDS011;2463;49.948;8.472;2023-03-21T14:34:20;101.68;;;8.63;;
4895;SDS011;2463;49.948;8.472;2023-03-21T14:36:48;101.18;;;8.50;;
4895;SDS011;2463;49.948;8.472;2023-03-21T14:39:27;100.65;;;9.10;;
4895;SDS011;2463;49.948;8.472;2023-03-21T14:42:02;102.25;;;9.60;;
4895;SDS011;2463;49.948;8.472;2023-03-21T14:44:40;101.38;;;10.43;;
4895;SDS011;2463;49.948;8.472;2023-03-21T14:49:57;110.32;;;9.57;;
4895;SDS011;2463;49.948;8.472;2023-03-21T14:52:28;101.68;;;9.02;;
4895;SDS011;2463;49.948;8.472;2023-03-21T14:54:57;99.28;;;9.00;;
4895;SDS011;2463;49.948;8.472;2023-03-21T14:57:26;99.25;;;9.05;;
4895;SDS011;2463;49.948;8.472;2023-03-21T14:59:57;98.43;;;10.05;;
4895;SDS011;2463;49.948;8.472;2023-03-21T15:02:28;97.20;;;8.80;;
4895;SDS011;2463;49.948;8.472;2023-03-21T15:05:10;95.75;;;8.85;;
4895;SDS011;2463;49.948;8.472;2023-03-21T15:07:56;98.40;;;9.25;;
4895;SDS011;2463;49.948;8.472;2023-03-21T15:10:24;95.30;;;8.80;;
4895;SDS011;2463;49.948;8.472;2023-03-21T15:12:54;102.50;;;9.93;;
4895;SDS011;2463;49.948;8.472;2023-03-21T15:15:23;101.50;;;9.82;;
4895;SDS011;2463;49.948;8.472;2023-03-21T15:17:52;102.03;;;9.45;;
4895;SDS011;2463;49.948;8.472;2023-03-21T15:20:24;100.68;;;9.35;;
4895;SDS011;2463;49.948;8.472;2023-03-21T15:22:54;99.20;;;8.88;;
4895;SDS011;2463;49.948;8.472;2023-03-21T15:25:26;100.60;;;8.85;;
4895;SDS011;2463;49.948;8.472;2023-03-21T15:27:55;102.82;;;9.20;;
4895;SDS011;2463;49.948;8.472;2023-03-21T15:30:23;98.72;;;9.13;;
4895;SDS011;2463;49.948;8.472;2023-03-21T15:32:56;94.88;;;8.75;;
4895;SDS011;2463;49.948;8.472;2023-03-21T15:35:25;98.03;;;9.43;;
4895;SDS011;2463;49.948;8.472;2023-03-21T15:38:01;104.90;;;10.35;;
4895;SDS011;2463;49.948;8.472;2023-03-21T15:40:31;98.38;;;10.00;;
4895;SDS011;2463;49.948;8.472;2023-03-21T15:43:17;96.65;;;9.20;;
4895;SDS011;2463;49.948;8.472;2023-03-21T15:45:45;97.72;;;10.00;;
4895;SDS011;2463;49.948;8.472;2023-03-21T15:48:14;98.65;;;10.30;;
4895;SDS011;2463;49.948;8.472;2023-03-21T15:53:30;102.82;;;9.30;;
4895;SDS011;2463;49.948;8.472;2023-03-21T15:55:59;101.60;;;10.70;;
4895;SDS011;2463;49.948;8.472;2023-03-21T15:58:36;104.50;;;11.10;;
4895;SDS011;2463;49.948;8.472;2023-03-21T16:01:15;96.40;;;9.68;;
4895;SDS011;2463;49.948;8.472;2023-03-21T16:03:44;95.28;;;9.38;;
4895;SDS011;2463;49.948;8.472;2023-03-21T16:06:20;101.00;;;9.45;;
4895;SDS011;2463;49.948;8.472;2023-03-21T16:08:52;102.47;;;10.52;;
4895;SDS011;2463;49.948;8.472;2023-03-21T16:11:41;101.50;;;10.43;;
4895;SDS011;2463;49.948;8.472;2023-03-21T16:14:13;97.68;;;9.32;;
4895;SDS011;2463;49.948;8.472;2023-03-21T16:16:39;97.13;;;9.48;;
4895;SDS011;2463;49.948;8.472;2023-03-21T16:19:06;98.03;;;9.82;;
4895;SDS011;2463;49.948;8.472;2023-03-21T16:21:33;102.82;;;9.57;;
4895;SDS011;2463;49.948;8.472;2023-03-21T16:24:03;99.15;;;10.23;;
4895;SDS011;2463;49.948;8.472;2023-03-21T16:26:32;104.85;;;10.20;;
4895;SDS011;2463;49.948;8.472;2023-03-21T16:29:02;99.45;;;10.15;;
4895;SDS011;2463;49.948;8.472;2023-03-21T16:31:31;99.75;;;9.93;;
4895;SDS011;2463;49.948;8.472;2023-03-21T16:33:59;104.07;;;10.07;;
4895;SDS011;2463;49.948;8.472;2023-03-21T16:36:33;97.03;;;9.35;;
4895;SDS011;2463;49.948;8.472;2023-03-21T16:39:21;100.32;;;9.88;;
4895;SDS011;2463;49.948;8.472;2023-03-21T16:41:49;100.07;;;10.20;;
4895;SDS011;2463;49.948;8.472;2023-03-21T16:44:16;101.97;;;10.38;;
4895;SDS011;2463;49.948;8.472;2023-03-21T16:46:44;99.57;;;10.05;;
4895;SDS011;2463;49.948;8.472;2023-03-21T16:49:19;98.82;;;11.00;;
4895;SDS011;2463;49.948;8.472;2023-03-21T16:51:51;97.32;;;10.15;;
4895;SDS011;2463;49.948;8.472;2023-03-21T16:54:19;99.43;;;10.10;;
4895;SDS011;2463;49.948;8.472;2023-03-21T16:56:48;100.65;;;11.13;;
4895;SDS011;2463;49.948;8.472;2023-03-21T16:59:17;100.88;;;11.05;;
4895;SDS011;2463;49.948;8.472;2023-03-21T17:01:44;99.88;;;9.73;;
4895;SDS011;2463;49.948;8.472;2023-03-21T17:04:13;97.03;;;9.40;;
4895;SDS011;2463;49.948;8.472;2023-03-21T17:06:43;101.50;;;10.68;;